createdAt,value
2022-09-13T00:03:52.422Z,10.87
2022-09-13T00:07:21.598Z,10.85
2022-09-13T00:10:55.900Z,10.85
2022-09-13T00:14:23.071Z,10.84
2022-09-13T00:17:50.119Z,10.84
2022-09-13T00:21:19.085Z,10.84
2022-09-13T00:24:45.988Z,10.84
2022-09-13T00:28:12.858Z,10.81
2022-09-13T00:31:58.691Z,10.80
2022-09-13T00:35:37.170Z,10.79
2022-09-13T00:39:22.929Z,10.76
2022-09-13T00:42:50.219Z,10.74
2022-09-13T00:46:23.696Z,10.71
2022-09-13T00:49:52.177Z,10.69
2022-09-13T00:53:23.215Z,10.66
2022-09-13T00:56:53.906Z,10.63
2022-09-13T01:00:22.372Z,10.59
2022-09-13T01:03:59.349Z,10.55
2022-09-13T01:07:26.247Z,10.52
2022-09-13T01:10:58.669Z,10.49
2022-09-13T01:14:26.776Z,10.47
2022-09-13T01:17:59.179Z,10.43
2022-09-13T01:22:01.937Z,10.41
2022-09-13T01:26:03.294Z,10.38
2022-09-13T01:30:11.004Z,10.36
2022-09-13T01:33:53.405Z,10.35
2022-09-13T01:37:42.087Z,10.36
2022-09-13T01:41:23.046Z,10.35
2022-09-13T01:45:05.711Z,10.34
2022-09-13T01:49:03.023Z,10.32
2022-09-13T01:52:46.670Z,10.29
2022-09-13T01:56:29.142Z,10.28
2022-09-13T02:00:02.167Z,10.27
2022-09-13T02:03:44.537Z,10.27
2022-09-13T02:07:17.744Z,10.26
2022-09-13T02:11:01.460Z,10.25
2022-09-13T02:14:36.976Z,10.25
2022-09-13T02:18:11.118Z,10.23
2022-09-13T02:21:44.621Z,10.22
2022-09-13T02:25:15.854Z,10.18
2022-09-13T02:28:48.959Z,10.15
2022-09-13T02:32:22.919Z,10.12
2022-09-13T02:36:03.986Z,10.09
2022-09-13T02:39:33.752Z,10.07
2022-09-13T02:43:11.399Z,10.05
2022-09-13T02:47:00.865Z,10.02
2022-09-13T02:50:42.823Z,10.00
2022-09-13T02:54:17.459Z,9.99
2022-09-13T02:58:01.249Z,9.98
2022-09-13T03:01:28.974Z,9.96
2022-09-13T03:04:56.384Z,9.93
2022-09-13T03:08:25.202Z,9.91
2022-09-13T03:12:30.153Z,9.90
2022-09-13T03:16:06.819Z,9.89
2022-09-13T03:19:49.513Z,9.87
2022-09-13T03:23:41.027Z,9.86
2022-09-13T03:27:20.739Z,9.85
2022-09-13T03:30:52.547Z,9.83
2022-09-13T03:34:31.649Z,9.82
2022-09-13T03:38:06.788Z,9.80
2022-09-13T03:41:43.096Z,9.79
2022-09-13T03:45:16.309Z,9.78
2022-09-13T03:48:47.506Z,9.76
2022-09-13T03:52:14.719Z,9.74
2022-09-13T03:55:44.140Z,9.74
2022-09-13T03:59:11.378Z,9.71
2022-09-13T04:02:38.577Z,9.70
2022-09-13T04:06:54.480Z,9.69
2022-09-13T04:10:21.840Z,9.68
2022-09-13T04:13:48.960Z,9.67
2022-09-13T04:17:17.360Z,9.67
2022-09-13T04:20:44.334Z,9.67
2022-09-13T04:24:11.080Z,9.66
2022-09-13T04:27:37.899Z,9.65
2022-09-13T04:31:04.894Z,9.65
2022-09-13T04:34:31.682Z,9.64
2022-09-13T04:37:59.587Z,9.64
2022-09-13T04:41:26.533Z,9.67
2022-09-13T04:44:53.103Z,9.69
2022-09-13T04:48:20.526Z,9.75
2022-09-13T04:51:47.558Z,9.81
2022-09-13T04:55:14.480Z,9.89
2022-09-13T04:58:41.412Z,9.99
2022-09-13T05:02:08.460Z,10.08
2022-09-13T05:05:35.343Z,10.18
2022-09-13T05:09:02.125Z,10.29
2022-09-13T05:12:29.418Z,10.44
2022-09-13T05:15:58.977Z,10.61
2022-09-13T05:19:26.058Z,10.81
2022-09-13T05:22:52.778Z,11.01
2022-09-13T05:26:20.148Z,11.20
2022-09-13T05:29:46.969Z,11.35
2022-09-13T05:33:13.873Z,11.45
2022-09-13T05:36:41.574Z,11.56
2022-09-13T05:40:12.095Z,11.69
2022-09-13T05:43:40.219Z,11.94
2022-09-13T05:47:07.936Z,12.32
2022-09-13T05:50:57.307Z,12.83
2022-09-13T05:54:25.135Z,13.56
2022-09-13T05:57:52.047Z,14.30
2022-09-13T06:01:21.729Z,14.99
2022-09-13T06:04:48.424Z,15.59
2022-09-13T06:08:15.235Z,16.13
2022-09-13T06:11:42.523Z,16.66
2022-09-13T06:15:12.111Z,17.16
2022-09-13T06:18:39.328Z,17.68
2022-09-13T06:22:06.324Z,18.22
2022-09-13T06:25:33.258Z,18.74
2022-09-13T06:29:00.602Z,19.39
2022-09-13T06:32:27.421Z,19.91
2022-09-13T06:35:54.134Z,20.11
2022-09-13T06:39:21.094Z,20.27
2022-09-13T06:42:47.795Z,20.42
2022-09-13T06:46:18.591Z,20.59
2022-09-13T06:49:47.378Z,20.80
2022-09-13T06:53:14.417Z,20.73
2022-09-13T06:56:41.644Z,20.51
2022-09-13T07:00:11.917Z,20.17
2022-09-13T07:03:39.622Z,19.85
2022-09-13T07:07:06.604Z,19.56
2022-09-13T07:10:33.282Z,19.31
2022-09-13T07:14:01.149Z,19.08
2022-09-13T07:17:31.277Z,18.88
2022-09-13T07:21:03.597Z,18.91
2022-09-13T07:24:30.961Z,19.19
2022-09-13T07:27:58.596Z,19.57
2022-09-13T07:31:27.588Z,19.88
2022-09-13T07:34:54.689Z,20.00
2022-09-13T07:38:21.579Z,20.07
2022-09-13T07:41:48.744Z,20.11
2022-09-13T07:45:15.706Z,20.11
2022-09-13T07:48:45.022Z,20.14
2022-09-13T07:52:12.176Z,20.25
2022-09-13T07:55:39.206Z,20.51
2022-09-13T07:59:08.476Z,20.77
2022-09-13T08:02:37.505Z,21.00
2022-09-13T08:06:05.243Z,21.07
2022-09-13T08:09:32.037Z,21.10
2022-09-13T08:13:00.315Z,21.02
2022-09-13T08:16:28.803Z,20.98
2022-09-13T08:19:55.629Z,20.96
2022-09-13T08:23:22.432Z,20.92
2022-09-13T08:26:52.123Z,20.99
2022-09-13T08:30:19.498Z,21.07
2022-09-13T08:33:48.530Z,21.21
2022-09-13T08:37:15.511Z,21.32
2022-09-13T08:40:46.272Z,21.42
2022-09-13T08:44:18.309Z,21.45
2022-09-13T08:47:49.166Z,21.40
2022-09-13T08:51:30.120Z,21.30
2022-09-13T08:54:58.577Z,21.12
2022-09-13T08:58:50.189Z,20.86
2022-09-13T09:02:28.090Z,20.64
2022-09-13T09:05:54.947Z,20.48
2022-09-13T09:09:23.721Z,20.37
2022-09-13T09:12:55.045Z,20.26
2022-09-13T09:16:34.654Z,20.29
2022-09-13T09:20:08.863Z,20.41
2022-09-13T09:23:40.802Z,20.55
2022-09-13T09:27:17.990Z,20.63
2022-09-13T09:30:56.107Z,20.63
2022-09-13T09:34:31.293Z,20.53
2022-09-13T09:38:15.931Z,20.37
2022-09-13T09:41:44.335Z,20.15
2022-09-13T09:45:27.337Z,20.01
2022-09-13T09:48:57.995Z,19.90
2022-09-13T09:52:30.821Z,19.80
2022-09-13T09:56:04.382Z,19.70
2022-09-13T09:59:33.832Z,19.59
2022-09-13T10:03:01.261Z,19.50
2022-09-13T10:06:30.157Z,19.53
2022-09-13T10:10:03.340Z,19.70
2022-09-13T10:13:32.580Z,19.88
2022-09-13T10:17:17.688Z,20.03
2022-09-13T10:21:00.652Z,20.18
2022-09-13T10:24:28.650Z,20.27
2022-09-13T10:27:58.167Z,20.48
2022-09-13T10:31:32.853Z,20.86
2022-09-13T10:35:04.572Z,21.20
2022-09-13T10:38:36.041Z,21.43
2022-09-13T10:42:06.516Z,21.54
2022-09-13T10:45:34.571Z,21.53
2022-09-13T10:49:02.441Z,21.60
2022-09-13T10:52:43.687Z,21.72
2022-09-13T10:56:22.944Z,21.78
2022-09-13T10:59:55.746Z,21.73
2022-09-13T11:03:36.998Z,21.75
2022-09-13T11:07:19.065Z,21.75
2022-09-13T11:10:58.591Z,21.82
2022-09-13T11:14:36.874Z,21.84
2022-09-13T11:18:21.069Z,21.67
2022-09-13T11:22:09.071Z,21.56
2022-09-13T11:25:50.905Z,21.47
2022-09-13T11:29:32.509Z,21.36
2022-09-13T11:33:21.988Z,21.32
2022-09-13T11:37:01.501Z,21.30
2022-09-13T11:40:31.171Z,21.21
2022-09-13T11:44:20.798Z,21.15
2022-09-13T11:48:09.962Z,21.10
2022-09-13T11:51:51.785Z,21.03
2022-09-13T11:55:24.812Z,20.94
2022-09-13T11:58:55.927Z,20.85
2022-09-13T12:02:30.537Z,20.87
2022-09-13T12:06:03.033Z,20.90
2022-09-13T12:09:36.443Z,20.94
2022-09-13T12:13:05.994Z,20.87
2022-09-13T12:16:36.293Z,20.73
2022-09-13T12:20:07.266Z,20.54
2022-09-13T12:23:37.204Z,20.44
2022-09-13T12:27:10.682Z,20.37
2022-09-13T12:30:48.685Z,20.41
2022-09-13T12:34:24.413Z,20.49
2022-09-13T12:38:16.273Z,20.50
2022-09-13T12:41:54.469Z,20.44
2022-09-13T12:45:40.183Z,20.38
2022-09-13T12:49:19.990Z,20.41
2022-09-13T12:52:57.743Z,20.53
2022-09-13T12:56:40.960Z,20.68
2022-09-13T13:00:26.232Z,20.83
2022-09-13T13:03:57.585Z,20.93
2022-09-13T13:07:26.412Z,20.99
2022-09-13T13:11:06.172Z,21.07
2022-09-13T13:14:47.697Z,21.17
2022-09-13T13:18:29.514Z,21.29
2022-09-13T13:21:56.725Z,21.42
2022-09-13T13:25:39.650Z,21.56
2022-09-13T13:29:16.951Z,21.73
2022-09-13T13:33:07.544Z,21.76
2022-09-13T13:36:48.961Z,21.74
2022-09-13T13:40:30.444Z,21.72
2022-09-13T13:43:57.895Z,21.61
2022-09-13T13:47:56.207Z,21.54
2022-09-13T13:51:25.248Z,21.46
2022-09-13T13:55:04.954Z,21.42
2022-09-13T13:58:44.853Z,21.41
2022-09-13T14:02:18.974Z,21.37
2022-09-13T14:05:53.230Z,21.28
2022-09-13T14:09:36.691Z,21.19
2022-09-13T14:13:22.742Z,21.11
2022-09-13T14:17:02.294Z,20.98
2022-09-13T14:20:29.575Z,20.89
2022-09-13T14:24:18.045Z,20.87
2022-09-13T14:27:46.792Z,20.91
2022-09-13T14:31:21.206Z,20.97
2022-09-13T14:34:57.286Z,21.01
2022-09-13T14:38:31.007Z,21.05
2022-09-13T14:42:13.512Z,21.09
2022-09-13T14:45:41.698Z,21.02
2022-09-13T14:49:16.333Z,20.95
2022-09-13T14:52:49.968Z,20.92
2022-09-13T14:56:30.133Z,20.88
2022-09-13T15:00:00.629Z,20.79
2022-09-13T15:03:29.195Z,20.69
2022-09-13T15:07:11.127Z,20.68
2022-09-13T15:10:45.863Z,20.70
2022-09-13T15:14:32.886Z,20.60
2022-09-13T15:18:01.957Z,20.46
2022-09-13T15:21:29.963Z,20.44
2022-09-13T15:24:59.572Z,20.42
2022-09-13T15:28:26.926Z,20.32
2022-09-13T15:32:01.545Z,20.25
2022-09-13T15:35:35.196Z,20.18
2022-09-13T15:39:05.300Z,20.11
2022-09-13T15:42:31.958Z,20.07
2022-09-13T15:46:01.838Z,20.01
2022-09-13T15:49:29.705Z,19.94
2022-09-13T15:52:57.135Z,19.88
2022-09-13T15:56:35.513Z,19.80
2022-09-13T16:00:06.345Z,19.65
2022-09-13T16:03:36.525Z,19.41
2022-09-13T16:07:03.197Z,19.17
2022-09-13T16:10:31.627Z,18.96
2022-09-13T16:13:58.300Z,18.80
2022-09-13T16:17:26.856Z,18.65
2022-09-13T16:20:55.184Z,18.51
2022-09-13T16:24:23.979Z,18.37
2022-09-13T16:27:51.190Z,18.27
2022-09-13T16:31:20.197Z,18.17
2022-09-13T16:34:47.696Z,18.10
2022-09-13T16:38:15.427Z,18.02
2022-09-13T16:41:42.683Z,17.95
2022-09-13T16:45:11.896Z,17.88
2022-09-13T16:48:38.957Z,17.78
2022-09-13T16:52:05.834Z,17.67
2022-09-13T16:55:32.961Z,17.58
2022-09-13T16:58:59.845Z,17.49
2022-09-13T17:02:27.747Z,17.40
2022-09-13T17:06:02.816Z,17.32
2022-09-13T17:09:31.208Z,17.25
2022-09-13T17:12:58.871Z,17.18
2022-09-13T17:16:30.095Z,17.11
2022-09-13T17:19:59.101Z,17.01
2022-09-13T17:23:27.052Z,16.94
2022-09-13T17:26:54.867Z,16.88
2022-09-13T17:30:22.578Z,16.84
2022-09-13T17:33:51.024Z,16.79
2022-09-13T17:37:18.652Z,16.70
2022-09-13T17:40:46.770Z,16.62
2022-09-13T17:44:15.334Z,16.53
2022-09-13T17:47:43.177Z,16.45
2022-09-13T17:51:12.745Z,16.38
2022-09-13T17:54:40.922Z,16.33
2022-09-13T17:58:08.517Z,16.31
2022-09-13T18:01:36.912Z,16.29
2022-09-13T18:05:07.024Z,16.27
2022-09-13T18:08:39.286Z,16.25
2022-09-13T18:12:07.745Z,16.20
2022-09-13T18:15:35.413Z,16.13
2022-09-13T18:19:04.071Z,16.04
2022-09-13T18:22:32.106Z,15.97
2022-09-13T18:26:09.983Z,15.88
2022-09-13T18:29:38.526Z,15.77
2022-09-13T18:33:10.863Z,15.68
2022-09-13T18:36:40.455Z,15.59
2022-09-13T18:40:15.204Z,15.49
2022-09-13T18:43:44.478Z,15.41
2022-09-13T18:47:13.888Z,15.34
2022-09-13T18:50:46.386Z,15.27
2022-09-13T18:54:16.684Z,15.20
2022-09-13T18:57:44.633Z,15.13
2022-09-13T19:01:14.993Z,15.07
2022-09-13T19:04:43.175Z,15.02
2022-09-13T19:08:14.134Z,14.98
2022-09-13T19:11:47.634Z,14.94
2022-09-13T19:15:16.274Z,14.90
2022-09-13T19:18:45.313Z,14.87
2022-09-13T19:22:13.370Z,14.83
2022-09-13T19:25:41.135Z,14.80
2022-09-13T19:29:10.803Z,14.76
2022-09-13T19:32:38.623Z,14.73
2022-09-13T19:36:09.101Z,14.70
2022-09-13T19:39:36.827Z,14.65
2022-09-13T19:43:04.789Z,14.62
2022-09-13T19:46:34.727Z,14.57
2022-09-13T19:50:02.598Z,14.51
2022-09-13T19:53:53.336Z,14.45
2022-09-13T19:57:16.844Z,14.38
2022-09-13T20:00:45.185Z,14.33
2022-09-13T20:04:14.578Z,14.29
2022-09-13T20:07:44.592Z,14.25
2022-09-13T20:11:14.625Z,14.20
2022-09-13T20:14:41.512Z,14.16
2022-09-13T20:18:13.549Z,14.13
2022-09-13T20:21:40.720Z,14.08
2022-09-13T20:25:10.411Z,14.04
2022-09-13T20:28:37.089Z,14.00
2022-09-13T20:32:04.505Z,13.94
2022-09-13T20:35:32.332Z,13.90
2022-09-13T20:39:03.167Z,13.87
2022-09-13T20:42:30.842Z,13.85
2022-09-13T20:45:58.954Z,13.84
2022-09-13T20:49:26.356Z,13.82
2022-09-13T20:52:53.274Z,13.81
2022-09-13T20:56:21.086Z,13.78
2022-09-13T20:59:47.905Z,13.74
2022-09-13T21:03:15.514Z,13.69
2022-09-13T21:07:03.746Z,13.65
2022-09-13T21:10:31.561Z,13.62
2022-09-13T21:14:00.115Z,13.59
2022-09-13T21:17:27.201Z,13.57
2022-09-13T21:20:58.864Z,13.55
2022-09-13T21:24:25.580Z,13.52
2022-09-13T21:27:52.522Z,13.49
2022-09-13T21:31:22.683Z,13.45
2022-09-13T21:34:49.693Z,13.41
2022-09-13T21:38:16.515Z,13.37
2022-09-13T21:41:44.102Z,13.35
2022-09-13T21:45:12.915Z,13.32
2022-09-13T21:48:40.511Z,13.28
2022-09-13T21:52:08.039Z,13.24
2022-09-13T21:55:39.991Z,13.20
2022-09-13T21:59:09.598Z,13.16
2022-09-13T22:02:37.429Z,13.13
2022-09-13T22:06:05.208Z,13.11
2022-09-13T22:09:32.522Z,13.11
2022-09-13T22:12:59.279Z,13.11
2022-09-13T22:16:27.827Z,13.10
2022-09-13T22:19:54.672Z,13.07
2022-09-13T22:23:21.402Z,13.04
2022-09-13T22:26:49.568Z,13.01
2022-09-13T22:30:16.891Z,12.99
2022-09-13T22:33:44.364Z,12.98
2022-09-13T22:37:11.138Z,12.95
2022-09-13T22:40:37.887Z,12.93
2022-09-13T22:44:05.890Z,12.91
2022-09-13T22:47:32.559Z,12.90
2022-09-13T22:50:59.894Z,12.91
2022-09-13T22:54:28.676Z,12.95
2022-09-13T22:57:56.669Z,13.02
2022-09-13T23:01:24.601Z,13.09
2022-09-13T23:04:51.417Z,13.16
2022-09-13T23:08:18.282Z,13.20
2022-09-13T23:11:45.291Z,13.24
2022-09-13T23:15:13.681Z,13.25
2022-09-13T23:18:40.963Z,13.25
2022-09-13T23:22:07.731Z,13.23
2022-09-13T23:25:35.784Z,13.21
2022-09-13T23:29:04.335Z,13.17
2022-09-13T23:32:31.785Z,13.14
2022-09-13T23:36:01.579Z,13.11
2022-09-13T23:39:28.604Z,13.06
2022-09-13T23:42:55.277Z,13.02
2022-09-13T23:46:22.747Z,12.98
2022-09-13T23:49:49.746Z,12.93
2022-09-13T23:53:16.848Z,12.87
2022-09-13T23:56:43.990Z,12.83
